Aérodrome :
LOGIN :

S'inscrire | Disclaimer

   EN    FR    IT 

 










Légende :    VFR   VFR Marginal   IFR   IFR Intensif   IFR Très Intensif
Visi : 
Plafond : 
>= 8 km
>= 3000ft
5 à 8 km
1000 à 3000 ft
1500m à 5 km
500 à 1000 ft
800 à 1500m
200 à 500 ft
< 800m
< 200 ft
Symboles :   Orages  Brouillard  Fortes neiges  Fortes précipitations  Vent > 20 kt
SIGMETs :   Divers  Orages  Givrage  Turbulence  Onde Orograph.  Cendres Volcan.






- Altitude de l'aérodrome : 352 ft
- Code IATA : ARW


LRAR - Arad International

DERNIER METAR :
  • 240800Z 22007KT 9999 -RA FEW008 SCT011 BKN017 11/10 Q1004

METARs EXPIRÉS :
  • 240730Z 22009KT 9999 SCT008 BKN010 OVC015 11/10 Q1003
  • 240700Z 22008KT 9999 SCT005 BKN007 BKN009 11/10 Q1003
  • 240630Z 22009KT 7000 SCT004 BKN006 BKN008 11/10 Q1003
  • 240600Z 22009KT 5000 BR FEW003 BKN005 OVC007 11/10 Q1003
  • 240530Z AUTO 22009KT 3300 BR SCT002/// BKN004/// 10/10 Q1003
  • 240500Z AUTO 21009KT 3900 BR SCT002/// OVC004/// 10/10 Q1003
  • 240430Z AUTO 20008KT 7000 SCT004/// BKN008/// BKN011/// 10/10 Q1003
  • 240400Z AUTO 19007KT 9999 FEW004/// SCT008/// OVC010/// 10/10 Q1003
  • 240330Z AUTO 19006KT 9999 FEW004/// SCT006/// BKN009/// 10/10 Q1003

TAF TAF LRAR
Valide du 24 à 06h jusqu'au 24 à 15h UTC


240500Z 2406/2415 21010KT 3000 BR BKN002 OVC010
BECMG 2407/2409 9999 NSW SCT020 SCT035CB
TEMPO 2409/2413 21015G25KT 5000 -SHRA
PROB30
TEMPO 2413/2415 5000 -TSRA



MET'MAP, la Météo Aéronautique d'un coup d'oeil ! - Copyright ORBIFLY Décembre 2007 - Disclaimer

ORBIFLY MET'MAP TEAM :

Programmation & Développement : Alexandra Zaïnal
Sur une idée originale de : Baudouin d'Aumeries
Soutien technique & logistique : Manuel Goepfert
Assistance : Marc-Olivier Méhu




SOURCES & CREDITS :

   NOAA